Terminal Aerodrome Forecast
Issued by NWS

Home | Current Version | Previous Version | Graphics & Text | Print | Product List | Glossary On
Versions: 1 2 3 4 5 6 7 8 9 10 11 12 13 14 15 16 17 18
000
FTUS43 KMPX 171100
TAFRNH
TAF
KRNH 171121Z 1712/1812 30008KT P6SM SCT020 BKN060
     FM171500 33004KT P6SM -SHSN BKN020
     FM180000 VRB02KT P6SM BKN100=

USA.gov is the U.S. government's official web portal to all federal, state and local government web resources and services.